الصفحة الرئيسية
METAR-TAF:

METAR-TAF

مطار :

ياكوتسك, روسيا

دائرة عرض: 62-01N, خط طول: 129-43E, ارتفاع: 103 متر

مراقبة الطقس الحالي

تاريخ ووقت الإصدار 20 دقيقة قبل الساعة 12:00UTC
رياح هادئة
درجة الحرارة 18°درجة مئوية
الرطوبة 64%
ضغط 1010 hPa
الرؤية 10 كم أو أكثر
الغيوم لا تقل 1500 م ولا وجود لمزنة ركامية السحاب الأسود

METAR: UEEE 231200Z 00000MPS CAVOK 18/11 Q1010 R23L/09//60 NOSIG RMK QFE748

زمن: 21:20 (12:20 UTC)

توقعات

تاريخ ووقت الإصدار 1ساعة و 20 دقيقة قبل الساعة 11:00UTC
التوقعات صالحة من23 الساعة 12 UTC إلى 24 الساعة 18 UTC
ريح 2 عقدةمن اتجاهات متغيرة
الرؤية 10 كم أو أكثر
الغيوم لا تقل 1500 م ولا وجود لمزنة ركامية السحاب الأسود
أصبح
من 24 الساعة 01 UTC إلى 24 الساعة 03 UTC
غيوم متفرقة على ارتفاع 3000 قدم, مزنة ركامية.

TAF: UEEE 231100Z 2312/2418 VRB01MPS CAVOK BECMG 2401/2403 SCT030CB

أرصاد الطقس والتوقعات من أكثر من 4000 مطار (تقارير الطقس للمطار METAR والتنبؤ بالطقس بالمطارTAF).

المحطات المتاحة هي النقط الصفراء والحمراء على الخريطة.

حرك المؤشر فوق النقطة لمعرفة اسم المحطة.

ثم انقر لمعرفة أرصاد وتوقعات الطقس.

لتغيير الخارطة: اضغط على الأزرار الخضراء مع رمز الصليب الأسود للتكبير. على الزر الأخضر مع شرطة للتصغير، أو على الأسهم الخضراء للخرائط المجاورة.


METAR-TAF: